Time;durP1;ratioP1;P1;durP2;ratioP2;P2;SDS_P1;SDS_P2;PMS_P1;PMS_P2;Temp;Humidity;BMP_temperature;BMP_pressure;BME280_temperature;BME280_humidity;BME280_pressure;Samples;Min_cycle;Max_cycle;Signal;HPM_P1;HPM_P2
2021/09/29 00:00:57;;;;;;;7.67;3.65;;;;;;;11.68;66.79;101899.78;1754299;79;21186;-58
2021/09/29 00:03:23;;;;;;;7.05;3.22;;;;;;;11.67;66.70;101901.19;1771747;78;21026;-59
2021/09/29 00:05:51;;;;;;;7.58;2.95;;;;;;;11.70;66.64;101899.22;1774555;78;21011;-59
2021/09/29 00:08:18;;;;;;;8.65;2.95;;;;;;;11.73;66.56;101900.80;1770859;79;21033;-59
2021/09/29 00:10:46;;;;;;;8.13;3.20;;;;;;;11.76;66.61;101901.09;1770428;80;21042;-59
2021/09/29 00:13:14;;;;;;;7.90;3.50;;;;;;;11.73;66.56;101893.37;1767759;78;21165;-59
2021/09/29 00:15:41;;;;;;;8.95;3.37;;;;;;;11.70;66.52;101896.58;1768297;79;21070;-57
2021/09/29 00:18:07;;;;;;;10.68;3.30;;;;;;;11.65;66.61;101901.73;1769435;79;21480;-58
2021/09/29 00:20:34;;;;;;;9.03;3.75;;;;;;;11.59;66.72;101908.23;1761081;79;21471;-57
2021/09/29 00:23:01;;;;;;;7.80;3.02;;;;;;;11.54;67.01;101910.30;1709739;82;21069;-57
2021/09/29 00:25:27;;;;;;;12.93;3.17;;;;;;;11.55;67.01;101913.77;1730129;80;22899;-58
2021/09/29 00:27:55;;;;;;;7.65;3.52;;;;;;;11.59;67.12;101911.34;1706781;82;21064;-57
2021/09/29 00:30:22;;;;;;;7.25;3.25;;;;;;;11.60;67.22;101909.07;1724058;80;21071;-58
2021/09/29 00:32:48;;;;;;;8.48;3.72;;;;;;;11.61;67.38;101907.66;1735675;82;21368;-58
2021/09/29 00:35:15;;;;;;;8.43;3.72;;;;;;;11.59;67.19;101907.39;1730069;81;21066;-58
2021/09/29 00:37:43;;;;;;;6.95;2.95;;;;;;;11.55;67.28;101908.50;1706454;80;21107;-58
2021/09/29 00:40:10;;;;;;;7.37;3.08;;;;;;;11.51;67.22;101906.52;1732466;82;21493;-58
2021/09/29 00:42:37;;;;;;;8.58;3.45;;;;;;;11.45;67.12;101909.55;1681797;83;21102;-58
2021/09/29 00:45:06;;;;;;;8.83;3.45;;;;;;;11.36;67.23;101908.75;1681043;83;21067;-58
2021/09/29 00:47:33;;;;;;;6.47;2.72;;;;;;;11.29;67.09;101906.47;1707775;82;21097;-58
2021/09/29 00:49:59;;;;;;;7.30;3.20;;;;;;;11.22;67.10;101905.14;1685857;82;21157;-58
2021/09/29 00:52:26;;;;;;;9.93;3.22;;;;;;;11.26;67.19;101909.76;1702492;82;21589;-59
2021/09/29 00:54:54;;;;;;;8.73;2.70;;;;;;;11.28;67.21;101908.74;1676818;82;21139;-58
2021/09/29 00:57:20;;;;;;;6.50;2.83;;;;;;;11.31;67.20;101911.20;1702240;82;21109;-58
2021/09/29 00:59:47;;;;;;;6.22;2.95;;;;;;;11.28;67.07;101911.37;1678065;83;21050;-59
2021/09/29 01:02:14;;;;;;;5.92;3.12;;;;;;;11.20;67.09;101909.66;1709304;82;21171;-58
2021/09/29 01:04:40;;;;;;;9.08;3.20;;;;;;;11.14;67.12;101912.16;1704571;81;21019;-58
2021/09/29 01:07:27;;;;;;;9.63;3.58;;;;;;;11.08;67.18;101919.60;1730978;80;21571;-59
2021/09/29 01:10:07;;;;;;;5.40;2.90;;;;;;;11.02;67.39;101923.41;1732732;82;21527;-57
2021/09/29 01:12:56;;;;;;;9.08;3.80;;;;;;;10.93;67.39;101924.80;1727910;80;21074;-57
2021/09/29 01:15:29;;;;;;;8.75;3.30;;;;;;;10.90;67.42;101926.28;1728386;80;21171;-57
2021/09/29 01:18:04;;;;;;;7.17;2.60;;;;;;;10.92;67.34;101928.83;1732962;80;21000;-57
2021/09/29 01:20:45;;;;;;;9.45;3.25;;;;;;;10.93;67.42;101926.59;1730220;80;21047;-57
2021/09/29 01:23:26;;;;;;;10.85;3.87;;;;;;;10.94;67.37;101937.04;1731841;80;21074;-57
2021/09/29 01:26:09;;;;;;;6.92;3.10;;;;;;;10.89;67.29;101936.45;1726810;80;21102;-58
2021/09/29 01:28:39;;;;;;;6.70;3.25;;;;;;;10.83;67.45;101937.27;1726326;80;21905;-57
2021/09/29 01:31:06;;;;;;;6.50;2.85;;;;;;;10.80;67.50;101945.33;1700654;83;21059;-58
2021/09/29 01:33:35;;;;;;;6.53;3.33;;;;;;;10.73;67.53;101943.03;1708101;82;21055;-58
2021/09/29 01:36:02;;;;;;;9.55;3.95;;;;;;;10.67;67.51;101945.16;1702622;82;21131;-58
2021/09/29 01:38:29;;;;;;;6.78;2.70;;;;;;;10.58;67.54;101938.15;1703370;82;21055;-58
2021/09/29 01:40:55;;;;;;;5.42;2.60;;;;;;;10.55;67.47;101939.63;1726314;80;21547;-59
2021/09/29 01:43:22;;;;;;;5.53;2.60;;;;;;;10.55;67.56;101935.69;1731467;80;21567;-58
2021/09/29 01:45:49;;;;;;;7.25;3.40;;;;;;;10.56;67.56;101937.39;1735199;80;21102;-57
2021/09/29 01:48:16;;;;;;;7.85;3.15;;;;;;;10.57;67.61;101941.73;1731037;80;21080;-58
2021/09/29 01:50:46;;;;;;;7.55;3.42;;;;;;;10.55;67.66;101943.58;1739050;80;21052;-57
2021/09/29 01:53:13;;;;;;;6.53;3.33;;;;;;;10.51;67.61;101940.75;1704561;80;21300;-57
2021/09/29 01:55:39;;;;;;;6.92;3.10;;;;;;;10.47;67.76;101947.57;1695351;82;21039;-57
2021/09/29 01:58:06;;;;;;;8.43;3.70;;;;;;;10.44;67.71;101943.78;1730155;80;21594;-58
2021/09/29 02:00:32;;;;;;;7.28;2.75;;;;;;;10.39;67.70;101944.06;1707420;82;21093;-59
2021/09/29 02:03:00;;;;;;;5.62;2.87;;;;;;;10.33;67.68;101951.80;1729995;80;21090;-58
2021/09/29 02:05:30;;;;;;;5.72;2.83;;;;;;;10.31;67.70;101950.17;1683916;83;22077;-58
2021/09/29 02:07:58;;;;;;;6.67;3.02;;;;;;;10.36;67.77;101956.06;1728662;80;21511;-58
2021/09/29 02:10:24;;;;;;;5.70;2.17;;;;;;;10.40;67.70;101950.52;1706155;80;21082;-57
2021/09/29 02:12:51;;;;;;;9.25;3.17;;;;;;;10.45;67.73;101952.91;1726301;80;21157;-58
2021/09/29 02:15:18;;;;;;;6.78;3.05;;;;;;;10.44;67.85;101951.68;1727969;80;21604;-58
2021/09/29 02:17:44;;;;;;;7.58;3.08;;;;;;;10.44;67.99;101956.50;1731042;80;21111;-58
2021/09/29 02:20:12;;;;;;;5.62;2.65;;;;;;;10.43;67.98;101958.73;1728425;80;20995;-58
2021/09/29 02:22:40;;;;;;;7.45;3.05;;;;;;;10.40;68.08;101953.16;1709030;82;21519;-58
2021/09/29 02:25:10;;;;;;;6.97;2.62;;;;;;;10.40;68.22;101964.16;1726481;80;21023;-57
2021/09/29 02:27:36;;;;;;;7.33;2.70;;;;;;;10.43;68.08;101962.68;1731314;80;20995;-58
2021/09/29 02:30:05;;;;;;;5.95;2.80;;;;;;;10.49;67.96;101961.48;1732533;80;21149;-58
2021/09/29 02:32:34;;;;;;;8.00;3.10;;;;;;;10.49;67.74;101968.06;1732369;82;21091;-57
2021/09/29 02:35:02;;;;;;;6.05;3.25;;;;;;;10.45;67.78;101971.34;1730434;80;21046;-58
2021/09/29 02:37:29;;;;;;;6.22;2.45;;;;;;;10.37;67.98;101970.90;1710396;82;21057;-58
2021/09/29 02:39:55;;;;;;;6.00;2.45;;;;;;;10.33;68.15;101969.37;1732798;80;21627;-58
2021/09/29 02:42:21;;;;;;;8.75;2.83;;;;;;;10.31;68.19;101973.37;1728904;82;21139;-58
2021/09/29 02:44:48;;;;;;;7.20;3.33;;;;;;;10.28;68.07;101974.00;1726210;80;21047;-58
2021/09/29 02:47:14;;;;;;;4.87;2.30;;;;;;;10.24;68.11;101972.00;1708064;80;21583;-57
2021/09/29 02:49:41;;;;;;;6.12;2.60;;;;;;;10.24;67.91;101983.84;1728712;80;21039;-58
2021/09/29 02:52:08;;;;;;;6.40;2.77;;;;;;;10.26;67.73;101988.55;1732641;80;21046;-58
2021/09/29 02:54:34;;;;;;;7.15;2.42;;;;;;;10.27;67.71;101990.27;1707211;82;21204;-57
2021/09/29 02:57:00;;;;;;;5.37;2.27;;;;;;;10.30;67.72;101990.55;1700715;82;21075;-57
2021/09/29 02:59:26;;;;;;;5.85;2.60;;;;;;;10.32;67.75;101996.61;1701570;82;21130;-57
2021/09/29 03:01:53;;;;;;;5.12;2.58;;;;;;;10.33;67.65;101988.63;1734023;82;21659;-58
2021/09/29 03:04:20;;;;;;;5.70;2.47;;;;;;;10.32;67.37;101991.34;1681837;82;21122;-58
2021/09/29 03:06:46;;;;;;;7.22;2.77;;;;;;;10.28;67.40;101993.27;1702410;82;21802;-57
2021/09/29 03:09:13;;;;;;;4.85;2.10;;;;;;;10.25;67.45;101994.73;1709720;81;21085;-57
2021/09/29 03:11:41;;;;;;;5.00;2.47;;;;;;;10.19;67.38;101993.29;1727261;80;21130;-57
2021/09/29 03:14:08;;;;;;;4.85;2.00;;;;;;;10.20;67.29;101992.81;1725591;80;21528;-57
2021/09/29 03:16:35;;;;;;;6.00;2.47;;;;;;;10.22;67.21;101991.81;1725363;80;21034;-58
2021/09/29 03:19:01;;;;;;;4.92;1.98;;;;;;;10.24;67.12;101987.80;1705357;81;21097;-59
2021/09/29 03:21:27;;;;;;;4.75;2.30;;;;;;;10.24;67.32;101991.73;1691822;81;22126;-58
2021/09/29 03:23:54;;;;;;;5.15;2.15;;;;;;;10.22;67.46;101994.89;1723288;80;21095;-58
2021/09/29 03:26:21;;;;;;;4.80;1.92;;;;;;;10.22;67.50;102005.41;1721012;80;21093;-58
2021/09/29 03:28:47;;;;;;;8.30;2.47;;;;;;;10.21;67.53;102004.57;1724033;80;21121;-59
2021/09/29 03:31:14;;;;;;;6.28;2.20;;;;;;;10.20;67.64;102009.91;1726095;80;22667;-59
2021/09/29 03:33:40;;;;;;;5.83;2.17;;;;;;;10.22;67.58;102007.60;1706893;82;21055;-56
2021/09/29 03:36:07;;;;;;;4.78;2.08;;;;;;;10.22;67.56;102003.66;1722591;80;22133;-57
2021/09/29 03:38:33;;;;;;;4.17;1.47;;;;;;;10.27;67.29;102005.17;1726941;80;21136;-57
2021/09/29 03:41:00;;;;;;;4.28;1.70;;;;;;;10.29;67.05;102005.94;1696092;81;20987;-57
2021/09/29 03:43:26;;;;;;;4.15;2.17;;;;;;;10.30;67.01;102006.34;1723067;80;21137;-58
2021/09/29 03:45:52;;;;;;;5.15;1.90;;;;;;;10.29;66.96;102005.94;1720347;80;21087;-58
2021/09/29 03:48:19;;;;;;;5.20;1.92;;;;;;;10.27;66.99;102013.94;1697764;82;21540;-58
2021/09/29 03:50:45;;;;;;;4.53;1.90;;;;;;;10.26;67.02;102011.39;1675434;83;21087;-57
2021/09/29 03:53:12;;;;;;;4.67;1.70;;;;;;;10.22;66.88;102014.17;1708500;82;21066;-58
2021/09/29 03:55:38;;;;;;;4.62;1.82;;;;;;;10.16;66.82;102008.39;1715858;81;21124;-58
2021/09/29 03:58:05;;;;;;;5.70;1.85;;;;;;;10.09;66.94;102014.43;1692614;83;21489;-57
2021/09/29 04:00:32;;;;;;;5.10;1.75;;;;;;;10.08;66.94;102021.92;1713247;82;21038;-57
2021/09/29 04:02:58;;;;;;;3.95;1.50;;;;;;;10.12;66.80;102019.53;1691159;82;21094;-58
2021/09/29 04:05:24;;;;;;;4.50;1.85;;;;;;;10.14;66.84;102025.56;1710998;81;21055;-58
2021/09/29 04:07:52;;;;;;;5.97;2.15;;;;;;;10.16;66.95;102026.33;1710264;82;21939;-59
2021/09/29 04:10:20;;;;;;;4.20;1.70;;;;;;;10.18;67.01;102026.25;1716105;81;21102;-60
2021/09/29 04:12:47;;;;;;;5.80;1.90;;;;;;;10.19;66.86;102025.33;1710743;81;21046;-59
2021/09/29 04:15:14;;;;;;;4.70;1.87;;;;;;;10.19;66.65;102027.96;1711360;82;21094;-59
2021/09/29 04:17:41;;;;;;;5.35;2.20;;;;;;;10.15;66.64;102032.50;1710570;82;21552;-60
2021/09/29 04:20:09;;;;;;;5.78;2.00;;;;;;;10.14;66.84;102031.30;1706809;82;21154;-58
2021/09/29 04:22:35;;;;;;;4.50;1.65;;;;;;;10.18;67.38;102030.19;1700568;82;21596;-57
2021/09/29 04:25:06;;;;;;;4.10;1.50;;;;;;;10.31;67.09;102035.67;1698637;83;21109;-58
2021/09/29 04:27:33;;;;;;;4.55;1.75;;;;;;;10.42;66.86;102038.60;1678079;83;21110;-58
2021/09/29 04:30:00;;;;;;;4.75;1.70;;;;;;;10.50;66.47;102041.68;1678373;83;21067;-60
2021/09/29 04:32:26;;;;;;;4.60;1.92;;;;;;;10.51;66.26;102043.39;1689531;82;21519;-59
2021/09/29 04:34:52;;;;;;;6.22;1.62;;;;;;;10.48;66.09;102043.55;1686582;84;21958;-58
2021/09/29 04:37:19;;;;;;;5.40;2.30;;;;;;;10.43;66.10;102050.84;1697118;82;21110;-58
2021/09/29 04:39:45;;;;;;;9.95;1.85;;;;;;;10.38;66.18;102053.70;1692160;83;21105;-59
2021/09/29 04:42:12;;;;;;;4.45;1.65;;;;;;;10.33;65.99;102051.78;1697839;83;21407;-58
2021/09/29 04:44:38;;;;;;;4.85;1.82;;;;;;;10.25;66.12;102057.88;1698730;83;21148;-58
2021/09/29 04:47:05;;;;;;;4.42;1.65;;;;;;;10.25;66.22;102064.45;1697828;83;21111;-58
2021/09/29 04:49:31;;;;;;;6.03;1.82;;;;;;;10.29;66.11;102066.02;1695289;83;21136;-58
2021/09/29 04:51:57;;;;;;;4.95;2.10;;;;;;;10.30;65.92;102062.43;1691596;83;21741;-59
2021/09/29 04:54:25;;;;;;;4.60;1.70;;;;;;;10.32;65.93;102063.70;1693600;82;21140;-57
2021/09/29 04:56:52;;;;;;;3.42;1.55;;;;;;;10.30;66.04;102068.16;1709758;82;21915;-60
2021/09/29 04:59:18;;;;;;;4.50;1.90;;;;;;;10.28;66.06;102065.61;1678570;83;21547;-59
2021/09/29 05:01:45;;;;;;;4.50;2.40;;;;;;;10.26;66.02;102075.38;1683090;82;21048;-60
2021/09/29 05:04:12;;;;;;;5.35;2.22;;;;;;;10.22;66.09;102072.05;1690001;84;20986;-59
2021/09/29 05:06:39;;;;;;;4.15;1.92;;;;;;;10.18;66.06;102070.49;1685065;83;21003;-58
2021/09/29 05:09:06;;;;;;;5.53;2.60;;;;;;;10.13;66.09;102073.83;1685754;82;21109;-59
2021/09/29 05:11:44;;;;;;;5.67;2.15;;;;;;;10.13;66.07;102078.25;1668607;82;21086;-61
2021/09/29 05:14:10;;;;;;;4.28;1.52;;;;;;;10.19;66.10;102083.20;1702662;82;21018;-59
2021/09/29 05:16:40;;;;;;;3.72;1.70;;;;;;;10.27;66.14;102086.73;1683752;83;21377;-60
2021/09/29 05:19:07;;;;;;;4.83;1.82;;;;;;;10.31;66.07;102086.98;1662818;83;21168;-60
2021/09/29 05:21:34;;;;;;;6.30;2.47;;;;;;;10.34;65.93;102085.07;1699489;82;21714;-58
2021/09/29 05:24:01;;;;;;;5.22;2.40;;;;;;;10.37;65.87;102087.55;1696317;83;21126;-60
2021/09/29 05:26:27;;;;;;;5.67;2.80;;;;;;;10.40;65.84;102085.20;1674673;83;21408;-59
2021/09/29 05:28:55;;;;;;;4.65;2.25;;;;;;;10.43;65.81;102094.73;1728076;80;21004;-59
2021/09/29 05:31:22;;;;;;;4.80;2.62;;;;;;;10.44;65.71;102094.66;1727619;80;21011;-59
2021/09/29 05:33:48;;;;;;;4.30;1.90;;;;;;;10.45;65.61;102098.13;1699296;82;21360;-59
2021/09/29 05:36:15;;;;;;;4.30;2.20;;;;;;;10.47;65.49;102097.58;1703784;82;21596;-59
2021/09/29 05:38:42;;;;;;;6.62;2.40;;;;;;;10.55;65.04;102100.66;1703992;82;21106;-59
2021/09/29 05:41:08;;;;;;;4.37;2.12;;;;;;;10.59;64.96;102096.92;1673590;83;21150;-59
2021/09/29 05:43:35;;;;;;;5.15;2.00;;;;;;;10.63;64.86;102100.27;1691907;82;21469;-59
2021/09/29 05:46:01;;;;;;;6.45;1.90;;;;;;;10.62;64.97;102097.24;1765498;80;21092;-59
2021/09/29 05:48:27;;;;;;;5.20;2.27;;;;;;;10.63;65.12;102097.64;1726787;80;20975;-59
2021/09/29 05:50:53;;;;;;;4.97;2.35;;;;;;;10.64;64.93;102098.01;1767002;79;21525;-59
2021/09/29 05:53:21;;;;;;;7.78;2.60;;;;;;;10.60;65.04;102094.69;1761156;79;21014;-59
2021/09/29 05:55:47;;;;;;;4.87;2.37;;;;;;;10.60;65.17;102100.80;1761294;79;20983;-60
2021/09/29 05:58:14;;;;;;;4.45;2.05;;;;;;;10.64;65.20;102099.33;1758133;79;21888;-60
2021/09/29 06:00:40;;;;;;;4.97;2.50;;;;;;;10.69;65.18;102096.85;1760210;79;21030;-59
2021/09/29 06:03:07;;;;;;;4.22;2.00;;;;;;;10.81;64.89;102099.30;1758470;79;20979;-60
2021/09/29 06:05:33;;;;;;;5.08;2.15;;;;;;;10.91;64.58;102099.18;1758805;79;21042;-58
2021/09/29 06:08:01;;;;;;;5.42;2.42;;;;;;;10.99;64.37;102104.48;1765876;79;21023;-59
2021/09/29 06:10:30;;;;;;;5.00;2.83;;;;;;;11.04;64.21;102109.88;1757179;79;21433;-59
2021/09/29 06:12:57;;;;;;;6.05;2.67;;;;;;;11.09;64.09;102103.05;1764012;79;20983;-59
2021/09/29 06:15:32;;;;;;;5.08;2.98;;;;;;;11.09;63.58;102103.05;1762750;79;21051;-59
2021/09/29 06:18:04;;;;;;;5.87;2.95;;;;;;;11.07;63.67;102101.81;1737239;80;20991;-59
2021/09/29 06:20:32;;;;;;;5.17;2.67;;;;;;;11.05;63.59;102106.33;1765310;79;21003;-60
2021/09/29 06:23:00;;;;;;;6.17;3.12;;;;;;;11.04;63.49;102108.56;1760771;80;21473;-60
2021/09/29 06:25:26;;;;;;;5.58;2.75;;;;;;;11.02;63.71;102107.80;1761212;79;21096;-60
2021/09/29 06:27:52;;;;;;;6.55;2.98;;;;;;;11.07;63.64;102108.88;1764414;79;21058;-60
2021/09/29 06:30:19;;;;;;;5.03;2.45;;;;;;;11.17;63.49;102114.50;1766037;79;21004;-59
2021/09/29 06:32:46;;;;;;;5.53;2.47;;;;;;;11.26;63.42;102114.84;1742799;80;21090;-61
2021/09/29 06:35:12;;;;;;;5.85;3.37;;;;;;;11.34;63.45;102118.36;1744019;80;21078;-60
2021/09/29 06:37:42;;;;;;;6.12;2.95;;;;;;;11.39;63.23;102117.63;1746954;80;21093;-59
2021/09/29 06:40:14;;;;;;;6.45;3.12;;;;;;;11.43;63.02;102118.30;1761247;79;21042;-59
2021/09/29 06:42:41;;;;;;;6.05;2.98;;;;;;;11.46;62.68;102121.61;1763182;79;21513;-58
2021/09/29 06:45:08;;;;;;;6.95;3.47;;;;;;;11.48;62.55;102116.27;1761045;79;21038;-61
2021/09/29 06:47:35;;;;;;;7.05;3.33;;;;;;;11.50;62.58;102122.32;1761427;79;21107;-59
2021/09/29 06:50:03;;;;;;;8.35;3.45;;;;;;;11.52;62.34;102125.72;1757447;79;21094;-60
2021/09/29 06:52:29;;;;;;;7.33;3.62;;;;;;;11.53;62.18;102126.95;1763486;79;21572;-60
2021/09/29 06:54:57;;;;;;;6.70;3.45;;;;;;;11.51;62.42;102118.25;1763664;79;21403;-59
2021/09/29 06:57:24;;;;;;;6.83;3.58;;;;;;;11.51;62.48;102124.84;1766501;79;21030;-60
2021/09/29 06:59:50;;;;;;;6.78;3.42;;;;;;;11.61;62.32;102129.13;1744894;79;21183;-59
2021/09/29 07:02:17;;;;;;;5.03;2.70;;;;;;;11.71;62.02;102122.88;1767044;79;21082;-58
2021/09/29 07:04:43;;;;;;;6.53;3.17;;;;;;;11.83;61.89;102131.87;1761276;79;20979;-58
2021/09/29 07:07:10;;;;;;;6.30;3.33;;;;;;;11.91;61.72;102123.08;1766964;79;22068;-58
2021/09/29 07:09:37;;;;;;;5.85;2.92;;;;;;;11.95;61.83;102120.63;1768953;79;20988;-58
2021/09/29 07:12:06;;;;;;;6.28;3.10;;;;;;;12.02;61.76;102125.08;1764343;79;21123;-59
2021/09/29 07:14:32;;;;;;;5.85;2.77;;;;;;;12.07;61.70;102125.22;1762847;79;21120;-59
2021/09/29 07:17:00;;;;;;;5.62;3.42;;;;;;;12.13;61.63;102127.95;1759766;79;21567;-57
2021/09/29 07:19:28;;;;;;;8.08;3.50;;;;;;;12.13;61.20;102124.47;1761845;79;21082;-59
2021/09/29 07:21:55;;;;;;;6.22;3.70;;;;;;;12.08;61.16;102129.53;1759027;79;21050;-58
2021/09/29 07:24:21;;;;;;;6.90;3.50;;;;;;;12.04;60.94;102128.02;1756584;79;21548;-59
2021/09/29 07:26:49;;;;;;;7.25;3.05;;;;;;;12.01;60.95;102132.64;1760570;79;21094;-57
2021/09/29 07:29:17;;;;;;;4.33;1.92;;;;;;;12.00;61.36;102127.84;1758978;79;21603;-57
2021/09/29 07:31:43;;;;;;;5.42;2.25;;;;;;;12.06;61.23;102125.30;1760672;80;21115;-59
2021/09/29 07:34:11;;;;;;;5.37;2.47;;;;;;;12.19;60.39;102121.48;1760899;79;21536;-59
2021/09/29 07:36:38;;;;;;;5.50;2.60;;;;;;;12.24;59.96;102119.42;1760614;79;21834;-59
2021/09/29 07:39:06;;;;;;;5.00;2.22;;;;;;;12.28;59.84;102122.23;1762501;79;20992;-60
2021/09/29 07:41:34;;;;;;;5.33;2.65;;;;;;;12.32;59.96;102122.90;1758873;79;21054;-59
2021/09/29 07:44:03;;;;;;;6.55;2.65;;;;;;;12.35;59.36;102118.77;1762297;79;20999;-58
2021/09/29 07:46:29;;;;;;;6.47;2.70;;;;;;;12.39;59.28;102126.86;1762316;79;21070;-59
2021/09/29 07:48:56;;;;;;;5.58;2.60;;;;;;;12.43;59.42;102115.20;1755808;79;22238;-59
2021/09/29 07:51:22;;;;;;;5.25;2.37;;;;;;;12.54;59.10;102123.33;1756129;79;21070;-58
2021/09/29 07:53:49;;;;;;;5.53;2.58;;;;;;;12.64;58.85;102119.18;1758787;79;21035;-59
2021/09/29 07:56:16;;;;;;;5.12;2.20;;;;;;;12.75;58.71;102118.98;1757038;79;21492;-58
2021/09/29 07:58:42;;;;;;;5.30;2.30;;;;;;;12.85;58.18;102121.92;1755941;79;21040;-58
2021/09/29 08:01:08;;;;;;;4.78;2.12;;;;;;;12.94;57.19;102118.20;1761092;79;22198;-58
2021/09/29 08:03:34;;;;;;;4.42;1.67;;;;;;;12.97;55.89;102123.30;1760859;79;21086;-58
2021/09/29 08:06:03;;;;;;;5.05;2.25;;;;;;;12.96;55.43;102126.03;1723807;80;21102;-58
2021/09/29 08:08:31;;;;;;;4.35;1.87;;;;;;;12.95;55.58;102122.56;1763625;79;21067;-58
2021/09/29 08:10:58;;;;;;;3.70;1.55;;;;;;;12.96;55.67;102123.39;1759238;79;21105;-58
2021/09/29 08:13:25;;;;;;;4.45;1.90;;;;;;;12.90;54.63;102123.80;1738583;80;21268;-58
2021/09/29 08:15:51;;;;;;;5.58;2.00;;;;;;;12.87;54.61;102127.47;1759860;79;21643;-58
2021/09/29 08:18:17;;;;;;;4.80;1.70;;;;;;;12.85;54.38;102124.08;1758011;79;21480;-59
2021/09/29 08:20:45;;;;;;;4.47;1.98;;;;;;;12.86;54.57;102125.78;1762355;79;21056;-57
2021/09/29 08:23:16;;;;;;;4.37;2.08;;;;;;;12.88;55.29;102123.89;1765274;79;21031;-57
2021/09/29 08:33:15;;;;;;;3.85;1.60;;;;;;;12.95;54.02;102124.36;1757891;79;21143;-58
2021/09/29 08:35:45;;;;;;;4.08;1.50;;;;;;;13.00;54.22;102129.72;1759518;79;21023;-57
2021/09/29 08:38:10;;;;;;;3.05;0.90;;;;;;;13.08;53.14;102127.06;1730939;80;21121;-58
2021/09/29 08:41:00;;;;;;;4.15;1.30;;;;;;;13.16;52.06;102124.34;1758330;79;21086;-57
2021/09/29 08:43:33;;;;;;;3.60;1.17;;;;;;;13.24;51.57;102128.28;1760914;79;21118;-59
2021/09/29 08:45:58;;;;;;;3.25;1.20;;;;;;;13.30;51.25;102122.61;1760997;79;21187;-59
2021/09/29 08:52:04;;;;;;;4.05;1.67;;;;;;;13.33;50.48;102123.30;1766545;79;21817;-58
2021/09/29 09:15:53;;;;;;;4.15;1.55;;;;;;;13.59;49.78;102104.88;1763308;79;21078;-60
2021/09/29 09:18:16;;;;;;;5.22;1.60;;;;;;;13.73;49.66;102107.94;1727054;79;21065;-60
2021/09/29 09:20:51;;;;;;;3.55;1.42;;;;;;;13.83;48.84;102108.18;1758781;79;21072;-59
2021/09/29 09:23:12;;;;;;;5.15;1.72;;;;;;;13.83;48.62;102112.16;1761253;79;21090;-59
2021/09/29 09:25:41;;;;;;;4.25;1.55;;;;;;;13.80;48.67;102105.28;1762816;79;21021;-59
2021/09/29 09:28:10;;;;;;;3.47;1.22;;;;;;;13.76;48.99;102106.41;1745031;79;21107;-57
2021/09/29 09:30:38;;;;;;;3.67;1.35;;;;;;;13.73;48.67;102113.23;1741858;79;22006;-59
2021/09/29 09:33:04;;;;;;;4.92;1.60;;;;;;;13.75;49.32;102109.55;1766336;79;21064;-58
2021/09/29 09:35:44;;;;;;;3.35;1.35;;;;;;;13.82;49.80;102109.98;1768543;79;20968;-57
2021/09/29 09:38:19;;;;;;;3.72;1.35;;;;;;;13.88;49.49;102104.75;1767562;79;21135;-57
2021/09/29 09:40:45;;;;;;;3.40;1.60;;;;;;;13.93;49.47;102111.91;1765616;79;21121;-57
2021/09/29 09:43:14;;;;;;;4.42;1.82;;;;;;;13.98;48.94;102103.67;1743874;79;21038;-59
2021/09/29 09:45:44;;;;;;;5.12;2.08;;;;;;;14.02;48.56;102111.77;1768921;79;21562;-59
2021/09/29 09:48:23;;;;;;;4.42;1.90;;;;;;;14.03;48.59;102107.69;1763077;79;21044;-58
2021/09/29 09:50:55;;;;;;;5.50;2.22;;;;;;;14.08;48.75;102110.03;1765265;79;21053;-57
2021/09/29 09:53:21;;;;;;;4.30;1.60;;;;;;;14.10;48.01;102110.31;1760306;79;21510;-60
2021/09/29 09:55:48;;;;;;;5.15;2.00;;;;;;;14.10;48.50;102105.48;1767227;79;21210;-58
2021/09/29 09:58:14;;;;;;;5.00;1.60;;;;;;;14.09;48.37;102110.42;1770435;79;21633;-59
2021/09/29 10:00:41;;;;;;;4.92;1.82;;;;;;;14.07;48.79;102109.66;1768233;79;21023;-59
2021/09/29 10:03:08;;;;;;;4.65;2.10;;;;;;;14.06;49.03;102117.23;1772327;79;21486;-56
2021/09/29 10:05:35;;;;;;;5.15;2.22;;;;;;;14.09;49.02;102107.28;1742891;79;21141;-57
2021/09/29 10:08:06;;;;;;;9.53;2.77;;;;;;;14.10;48.82;102105.02;1767780;79;21070;-58
2021/09/29 10:10:40;;;;;;;6.85;2.92;;;;;;;14.00;49.22;102106.57;1763965;79;21038;-58
2021/09/29 10:13:17;;;;;;;4.78;2.12;;;;;;;13.97;49.58;102107.25;1763334;79;21019;-59
2021/09/29 10:27:16;;;;;;;6.75;3.17;;;;;;;14.01;49.93;102107.44;1761042;79;21591;-58
2021/09/29 10:29:51;;;;;;;6.40;2.75;;;;;;;14.01;50.03;102109.60;1766152;79;20979;-58
2021/09/29 10:35:08;;;;;;;5.28;2.62;;;;;;;13.98;49.70;102111.13;1760093;79;21129;-57
2021/09/29 10:41:11;;;;;;;6.37;2.77;;;;;;;13.90;49.82;102110.78;1756523;79;21655;-58
2021/09/29 10:42:58;;;;;;;6.10;2.75;;;;;;;13.83;50.26;102108.18;1727413;79;20963;-58
2021/09/29 11:04:47;;;;;;;6.42;3.45;;;;;;;13.64;51.48;102100.14;1739467;79;21035;-57
2021/09/29 11:10:14;;;;;;;6.25;3.25;;;;;;;13.84;51.03;102097.50;1657828;80;22164;-58
2021/09/29 11:29:17;;;;;;;7.37;3.95;;;;;;;14.32;50.81;102088.97;1758033;79;21152;-58
2021/09/29 11:31:35;;;;;;;8.38;4.12;;;;;;;14.36;50.50;102081.69;1755444;79;21034;-60
2021/09/29 12:10:29;;;;;;;7.55;3.92;;;;;;;13.79;52.37;102074.95;1711894;82;21621;-57
2021/09/29 12:12:56;;;;;;;7.72;3.47;;;;;;;13.70;52.64;102088.30;1706791;82;21255;-58
2021/09/29 12:15:22;;;;;;;6.53;3.90;;;;;;;13.64;52.91;102090.05;1712594;82;21102;-58
2021/09/29 12:17:51;;;;;;;6.67;4.25;;;;;;;13.63;53.09;102084.36;1711090;82;21570;-57
2021/09/29 12:20:25;;;;;;;6.47;3.92;;;;;;;13.59;53.01;102090.34;1712047;82;21805;-58
2021/09/29 12:22:54;;;;;;;7.97;4.65;;;;;;;13.56;53.28;102083.92;1709795;82;21135;-58
2021/09/29 12:25:54;;;;;;;7.53;3.67;;;;;;;13.54;53.45;102087.98;1710486;82;21933;-57
2021/09/29 12:34:10;;;;;;;6.90;4.20;;;;;;;13.56;53.13;102086.08;1717973;81;22014;-58
2021/09/29 12:36:35;;;;;;;8.80;4.03;;;;;;;13.52;53.25;102083.28;1685641;81;21237;-57
2021/09/29 12:39:06;;;;;;;8.25;4.35;;;;;;;13.48;53.36;102081.80;1675098;83;21078;-60
2021/09/29 12:41:32;;;;;;;8.25;3.85;;;;;;;13.41;53.55;102086.25;1733879;81;21003;-58
2021/09/29 12:44:08;;;;;;;8.30;4.03;;;;;;;13.37;53.60;102085.61;1732864;81;21049;-58
2021/09/29 12:46:35;;;;;;;;;;;;;;;13.35;53.64;102086.19;1686347;83;21022;-58
2021/09/29 12:49:09;;;;;;;6.65;4.00;;;;;;;13.32;54.01;102085.05;1664083;84;22347;-59
2021/09/29 12:51:32;;;;;;;8.45;4.15;;;;;;;13.25;54.32;102083.25;1708990;81;20984;-59
2021/09/29 12:54:04;;;;;;;6.87;3.80;;;;;;;13.26;54.41;102083.60;1731048;81;20963;-59
2021/09/29 12:56:30;;;;;;;8.03;3.80;;;;;;;13.27;54.22;102083.15;1702527;82;21061;-59
2021/09/29 12:58:57;;;;;;;6.60;4.25;;;;;;;13.29;54.38;102073.31;1682401;83;21073;-59
2021/09/29 13:01:23;;;;;;;8.35;4.17;;;;;;;13.32;54.62;102081.93;1670830;84;21178;-59
2021/09/29 13:03:50;;;;;;;7.67;4.90;;;;;;;13.33;54.26;102081.45;1732567;81;21058;-59
2021/09/29 13:06:16;;;;;;;7.95;4.60;;;;;;;13.34;53.93;102076.55;1727835;81;21116;-58
2021/09/29 13:08:43;;;;;;;7.35;4.25;;;;;;;13.35;53.48;102079.58;1728634;81;21638;-58
2021/09/29 13:11:09;;;;;;;8.58;4.67;;;;;;;13.37;53.41;102082.96;1681889;83;21178;-58
2021/09/29 13:13:35;;;;;;;8.58;4.28;;;;;;;13.41;53.85;102075.67;1726933;81;21559;-58
2021/09/29 13:16:05;;;;;;;7.87;4.65;;;;;;;13.41;53.92;102079.16;1677138;83;21199;-57
2021/09/29 13:18:58;;;;;;;8.88;3.75;;;;;;;13.44;53.16;102076.80;1682774;83;21011;-57
2021/09/29 13:21:26;;;;;;;8.70;3.87;;;;;;;13.44;53.17;102083.41;1682287;83;21043;-57
2021/09/29 13:24:08;;;;;;;6.08;3.42;;;;;;;13.44;52.81;102072.34;1728946;81;21066;-58
2021/09/29 13:26:59;;;;;;;7.50;3.45;;;;;;;13.43;53.25;102075.96;1724073;81;21178;-57
2021/09/29 13:37:27;;;;;;;11.03;4.40;;;;;;;13.29;53.37;102071.52;1710219;82;21101;-57
2021/09/29 13:39:53;;;;;;;7.62;3.83;;;;;;;13.26;53.26;102074.34;1722923;81;21805;-56
2021/09/29 13:42:21;;;;;;;8.83;3.65;;;;;;;13.25;53.79;102071.35;1748031;80;21838;-57
2021/09/29 13:44:48;;;;;;;6.92;3.92;;;;;;;13.27;53.96;102072.09;1714859;82;21503;-57
2021/09/29 13:47:15;;;;;;;9.00;3.85;;;;;;;13.32;53.50;102069.19;1716221;82;21526;-56